sensor_id;sensor_type;location;lat;lon;timestamp;temperature;humidity
52879;DHT22;38747;53.140;6.498;2023-01-16T00:01:00;4.20;99.90
52879;DHT22;38747;53.140;6.498;2023-01-16T00:03:25;4.20;99.90
52879;DHT22;38747;53.140;6.498;2023-01-16T00:05:51;4.20;99.90
52879;DHT22;38747;53.140;6.498;2023-01-16T00:08:17;4.20;99.90
52879;DHT22;38747;53.140;6.498;2023-01-16T00:10:43;4.20;99.90
52879;DHT22;38747;53.140;6.498;2023-01-16T00:13:13;4.20;99.90
52879;DHT22;38747;53.140;6.498;2023-01-16T00:15:47;4.20;99.90
52879;DHT22;38747;53.140;6.498;2023-01-16T00:18:13;4.20;99.90
52879;DHT22;38747;53.140;6.498;2023-01-16T00:20:39;4.20;99.90
52879;DHT22;38747;53.140;6.498;2023-01-16T00:23:04;4.20;99.90
52879;DHT22;38747;53.140;6.498;2023-01-16T00:25:30;4.20;99.90
52879;DHT22;38747;53.140;6.498;2023-01-16T00:27:56;4.10;99.90
52879;DHT22;38747;53.140;6.498;2023-01-16T00:30:21;4.10;99.90
52879;DHT22;38747;53.140;6.498;2023-01-16T00:32:48;4.00;99.90
52879;DHT22;38747;53.140;6.498;2023-01-16T00:35:13;4.00;99.90
52879;DHT22;38747;53.140;6.498;2023-01-16T00:37:39;3.90;99.90
52879;DHT22;38747;53.140;6.498;2023-01-16T00:40:05;3.80;99.90
52879;DHT22;38747;53.140;6.498;2023-01-16T00:42:31;3.80;99.90
52879;DHT22;38747;53.140;6.498;2023-01-16T00:44:56;3.70;99.90
52879;DHT22;38747;53.140;6.498;2023-01-16T00:47:22;3.60;99.90
52879;DHT22;38747;53.140;6.498;2023-01-16T00:49:47;3.60;99.90
52879;DHT22;38747;53.140;6.498;2023-01-16T00:52:13;3.50;99.90
52879;DHT22;38747;53.140;6.498;2023-01-16T00:54:39;3.50;99.90
52879;DHT22;38747;53.140;6.498;2023-01-16T00:57:04;3.50;99.90
52879;DHT22;38747;53.140;6.498;2023-01-16T00:59:30;3.40;99.90
52879;DHT22;38747;53.140;6.498;2023-01-16T01:01:55;3.30;99.90
52879;DHT22;38747;53.140;6.498;2023-01-16T01:04:21;3.30;99.90
52879;DHT22;38747;53.140;6.498;2023-01-16T01:06:47;3.20;99.90
52879;DHT22;38747;53.140;6.498;2023-01-16T01:09:12;3.20;99.90
52879;DHT22;38747;53.140;6.498;2023-01-16T01:11:38;3.10;99.90
52879;DHT22;38747;53.140;6.498;2023-01-16T01:14:03;3.10;99.90
52879;DHT22;38747;53.140;6.498;2023-01-16T01:16:29;3.10;99.90
52879;DHT22;38747;53.140;6.498;2023-01-16T01:18:55;3.20;99.90
52879;DHT22;38747;53.140;6.498;2023-01-16T01:21:20;3.20;99.90
52879;DHT22;38747;53.140;6.498;2023-01-16T01:23:46;3.20;99.90
52879;DHT22;38747;53.140;6.498;2023-01-16T01:26:15;3.20;99.90
52879;DHT22;38747;53.140;6.498;2023-01-16T01:28:41;3.30;99.90
52879;DHT22;38747;53.140;6.498;2023-01-16T01:31:09;3.30;99.90
52879;DHT22;38747;53.140;6.498;2023-01-16T01:33:36;3.30;99.90
52879;DHT22;38747;53.140;6.498;2023-01-16T01:36:03;3.30;99.90
52879;DHT22;38747;53.140;6.498;2023-01-16T01:38:29;3.30;99.90
52879;DHT22;38747;53.140;6.498;2023-01-16T01:40:54;3.30;99.90
52879;DHT22;38747;53.140;6.498;2023-01-16T01:43:20;3.20;99.90
52879;DHT22;38747;53.140;6.498;2023-01-16T01:45:53;3.30;99.90
52879;DHT22;38747;53.140;6.498;2023-01-16T01:48:24;3.30;99.90
52879;DHT22;38747;53.140;6.498;2023-01-16T01:51:02;3.20;99.90
52879;DHT22;38747;53.140;6.498;2023-01-16T01:53:33;3.20;99.90
52879;DHT22;38747;53.140;6.498;2023-01-16T01:56:05;3.20;99.90
52879;DHT22;38747;53.140;6.498;2023-01-16T01:58:32;3.30;99.90
52879;DHT22;38747;53.140;6.498;2023-01-16T02:00:59;3.30;99.90
52879;DHT22;38747;53.140;6.498;2023-01-16T02:03:57;3.30;99.90
52879;DHT22;38747;53.140;6.498;2023-01-16T02:06:24;3.30;99.90
52879;DHT22;38747;53.140;6.498;2023-01-16T02:08:52;3.40;99.90
52879;DHT22;38747;53.140;6.498;2023-01-16T02:11:23;3.40;99.90
52879;DHT22;38747;53.140;6.498;2023-01-16T02:14:00;3.40;99.90
52879;DHT22;38747;53.140;6.498;2023-01-16T02:16:27;3.40;99.90
52879;DHT22;38747;53.140;6.498;2023-01-16T02:22:28;3.50;99.90
52879;DHT22;38747;53.140;6.498;2023-01-16T02:30:35;3.50;99.90
52879;DHT22;38747;53.140;6.498;2023-01-16T02:33:10;3.50;99.90
52879;DHT22;38747;53.140;6.498;2023-01-16T02:36:10;3.60;99.90
52879;DHT22;38747;53.140;6.498;2023-01-16T02:39:35;3.60;99.90
52879;DHT22;38747;53.140;6.498;2023-01-16T02:47:43;3.60;99.90
52879;DHT22;38747;53.140;6.498;2023-01-16T02:52:48;3.60;99.90
52879;DHT22;38747;53.140;6.498;2023-01-16T02:55:34;3.70;99.90
52879;DHT22;38747;53.140;6.498;2023-01-16T02:58:02;3.70;99.90
52879;DHT22;38747;53.140;6.498;2023-01-16T03:00:29;3.70;99.90
52879;DHT22;38747;53.140;6.498;2023-01-16T03:02:55;3.70;99.90
52879;DHT22;38747;53.140;6.498;2023-01-16T03:05:22;3.70;99.90
52879;DHT22;38747;53.140;6.498;2023-01-16T03:08:16;3.70;99.90
52879;DHT22;38747;53.140;6.498;2023-01-16T03:14:01;3.70;99.90
52879;DHT22;38747;53.140;6.498;2023-01-16T03:16:37;3.80;99.90
52879;DHT22;38747;53.140;6.498;2023-01-16T03:22:09;3.80;99.90
52879;DHT22;38747;53.140;6.498;2023-01-16T03:30:35;3.60;99.90
52879;DHT22;38747;53.140;6.498;2023-01-16T03:33:10;3.50;99.90
52879;DHT22;38747;53.140;6.498;2023-01-16T03:35:49;3.40;99.90
52879;DHT22;38747;53.140;6.498;2023-01-16T03:38:19;3.40;99.90
52879;DHT22;38747;53.140;6.498;2023-01-16T03:40:47;3.20;99.90
52879;DHT22;38747;53.140;6.498;2023-01-16T03:48:45;3.10;99.90
52879;DHT22;38747;53.140;6.498;2023-01-16T03:51:34;3.20;99.90
52879;DHT22;38747;53.140;6.498;2023-01-16T03:54:10;3.20;99.90
52879;DHT22;38747;53.140;6.498;2023-01-16T03:57:36;3.10;99.90
52879;DHT22;38747;53.140;6.498;2023-01-16T03:59:37;3.20;99.90
52879;DHT22;38747;53.140;6.498;2023-01-16T04:05:34;3.30;99.90
52879;DHT22;38747;53.140;6.498;2023-01-16T04:08:08;3.30;99.90
52879;DHT22;38747;53.140;6.498;2023-01-16T04:10:39;3.30;99.90
52879;DHT22;38747;53.140;6.498;2023-01-16T04:13:16;3.40;99.90
52879;DHT22;38747;53.140;6.498;2023-01-16T04:15:47;3.40;99.90
52879;DHT22;38747;53.140;6.498;2023-01-16T04:18:15;3.40;99.90
52879;DHT22;38747;53.140;6.498;2023-01-16T04:20:43;3.40;99.90
52879;DHT22;38747;53.140;6.498;2023-01-16T04:23:12;3.40;99.90
52879;DHT22;38747;53.140;6.498;2023-01-16T04:25:38;3.40;99.90
52879;DHT22;38747;53.140;6.498;2023-01-16T04:28:04;3.40;99.90
52879;DHT22;38747;53.140;6.498;2023-01-16T04:30:29;3.40;99.90
52879;DHT22;38747;53.140;6.498;2023-01-16T04:32:55;3.50;99.90
52879;DHT22;38747;53.140;6.498;2023-01-16T04:35:21;3.50;99.90
52879;DHT22;38747;53.140;6.498;2023-01-16T04:37:46;3.50;99.90
52879;DHT22;38747;53.140;6.498;2023-01-16T04:40:12;3.50;99.90
52879;DHT22;38747;53.140;6.498;2023-01-16T04:42:38;3.50;99.90
52879;DHT22;38747;53.140;6.498;2023-01-16T04:45:04;3.60;99.90
52879;DHT22;38747;53.140;6.498;2023-01-16T04:47:30;3.60;99.90
52879;DHT22;38747;53.140;6.498;2023-01-16T04:49:55;3.70;99.90
52879;DHT22;38747;53.140;6.498;2023-01-16T04:52:21;3.70;99.90
52879;DHT22;38747;53.140;6.498;2023-01-16T04:54:47;3.60;99.90
52879;DHT22;38747;53.140;6.498;2023-01-16T04:57:12;3.70;99.90
52879;DHT22;38747;53.140;6.498;2023-01-16T04:59:38;3.70;99.90
52879;DHT22;38747;53.140;6.498;2023-01-16T05:02:03;3.70;99.90
52879;DHT22;38747;53.140;6.498;2023-01-16T05:04:29;3.70;99.90
52879;DHT22;38747;53.140;6.498;2023-01-16T05:06:55;3.70;99.90
52879;DHT22;38747;53.140;6.498;2023-01-16T05:09:20;3.70;99.90
52879;DHT22;38747;53.140;6.498;2023-01-16T05:11:46;3.70;99.90
52879;DHT22;38747;53.140;6.498;2023-01-16T05:14:11;3.70;99.90
52879;DHT22;38747;53.140;6.498;2023-01-16T05:16:38;3.70;99.90
52879;DHT22;38747;53.140;6.498;2023-01-16T05:19:07;3.80;99.90
52879;DHT22;38747;53.140;6.498;2023-01-16T05:21:33;3.70;99.90
52879;DHT22;38747;53.140;6.498;2023-01-16T05:23:58;3.70;99.90
52879;DHT22;38747;53.140;6.498;2023-01-16T05:26:24;3.60;99.90
52879;DHT22;38747;53.140;6.498;2023-01-16T05:28:50;3.50;99.90
52879;DHT22;38747;53.140;6.498;2023-01-16T05:31:16;3.50;99.90
52879;DHT22;38747;53.140;6.498;2023-01-16T05:33:41;3.50;99.90
52879;DHT22;38747;53.140;6.498;2023-01-16T05:36:08;3.40;99.90
52879;DHT22;38747;53.140;6.498;2023-01-16T05:38:33;3.30;99.90
52879;DHT22;38747;53.140;6.498;2023-01-16T05:40:59;3.30;99.90
52879;DHT22;38747;53.140;6.498;2023-01-16T05:43:25;3.20;99.90
52879;DHT22;38747;53.140;6.498;2023-01-16T05:45:51;3.10;99.90
52879;DHT22;38747;53.140;6.498;2023-01-16T05:48:16;3.10;99.90
52879;DHT22;38747;53.140;6.498;2023-01-16T05:50:42;3.00;99.90
52879;DHT22;38747;53.140;6.498;2023-01-16T05:53:08;3.00;99.90
52879;DHT22;38747;53.140;6.498;2023-01-16T05:55:43;3.00;99.90
52879;DHT22;38747;53.140;6.498;2023-01-16T05:58:10;3.00;99.90
52879;DHT22;38747;53.140;6.498;2023-01-16T06:00:37;2.90;99.90
52879;DHT22;38747;53.140;6.498;2023-01-16T06:03:03;2.90;99.90
52879;DHT22;38747;53.140;6.498;2023-01-16T06:05:28;2.80;99.90
52879;DHT22;38747;53.140;6.498;2023-01-16T06:07:55;2.80;99.90
52879;DHT22;38747;53.140;6.498;2023-01-16T06:10:24;2.80;99.90
52879;DHT22;38747;53.140;6.498;2023-01-16T06:12:50;2.80;99.90
52879;DHT22;38747;53.140;6.498;2023-01-16T06:15:16;2.80;99.90
52879;DHT22;38747;53.140;6.498;2023-01-16T06:17:42;2.80;99.90
52879;DHT22;38747;53.140;6.498;2023-01-16T06:20:09;2.70;99.90
52879;DHT22;38747;53.140;6.498;2023-01-16T06:22:34;2.80;99.90
52879;DHT22;38747;53.140;6.498;2023-01-16T06:25:00;2.80;99.90
52879;DHT22;38747;53.140;6.498;2023-01-16T06:27:25;2.90;99.90
52879;DHT22;38747;53.140;6.498;2023-01-16T06:29:51;2.90;99.90
52879;DHT22;38747;53.140;6.498;2023-01-16T06:32:17;3.00;99.90
52879;DHT22;38747;53.140;6.498;2023-01-16T06:34:43;3.00;99.90
52879;DHT22;38747;53.140;6.498;2023-01-16T06:37:09;3.00;99.90
52879;DHT22;38747;53.140;6.498;2023-01-16T06:39:35;3.00;99.90
52879;DHT22;38747;53.140;6.498;2023-01-16T06:42:00;3.00;99.90
52879;DHT22;38747;53.140;6.498;2023-01-16T06:44:28;3.00;99.90
52879;DHT22;38747;53.140;6.498;2023-01-16T06:46:54;2.90;99.90
52879;DHT22;38747;53.140;6.498;2023-01-16T06:49:20;3.00;99.90
52879;DHT22;38747;53.140;6.498;2023-01-16T06:51:45;2.90;99.90
52879;DHT22;38747;53.140;6.498;2023-01-16T06:54:11;2.90;99.90
52879;DHT22;38747;53.140;6.498;2023-01-16T06:56:37;2.90;99.90
52879;DHT22;38747;53.140;6.498;2023-01-16T06:59:03;2.90;99.90
52879;DHT22;38747;53.140;6.498;2023-01-16T07:01:29;2.90;99.90
52879;DHT22;38747;53.140;6.498;2023-01-16T07:03:54;2.80;99.90
52879;DHT22;38747;53.140;6.498;2023-01-16T07:06:20;2.80;99.90
52879;DHT22;38747;53.140;6.498;2023-01-16T07:08:45;2.80;99.90
52879;DHT22;38747;53.140;6.498;2023-01-16T07:11:14;2.80;99.90
52879;DHT22;38747;53.140;6.498;2023-01-16T07:13:40;2.80;99.90
52879;DHT22;38747;53.140;6.498;2023-01-16T07:16:05;2.80;99.90
52879;DHT22;38747;53.140;6.498;2023-01-16T07:18:50;2.80;99.90
52879;DHT22;38747;53.140;6.498;2023-01-16T07:21:34;2.80;99.90
52879;DHT22;38747;53.140;6.498;2023-01-16T07:24:23;2.80;99.90
52879;DHT22;38747;53.140;6.498;2023-01-16T07:26:56;2.80;99.90
52879;DHT22;38747;53.140;6.498;2023-01-16T07:29:26;2.80;99.90
52879;DHT22;38747;53.140;6.498;2023-01-16T07:31:53;2.80;99.90
52879;DHT22;38747;53.140;6.498;2023-01-16T07:34:19;2.80;99.90
52879;DHT22;38747;53.140;6.498;2023-01-16T07:36:45;2.80;99.90
52879;DHT22;38747;53.140;6.498;2023-01-16T07:39:10;2.80;99.90
52879;DHT22;38747;53.140;6.498;2023-01-16T07:41:36;2.80;99.90
52879;DHT22;38747;53.140;6.498;2023-01-16T07:44:02;2.80;99.90
52879;DHT22;38747;53.140;6.498;2023-01-16T07:46:27;2.80;99.90
52879;DHT22;38747;53.140;6.498;2023-01-16T07:48:53;2.80;99.90
52879;DHT22;38747;53.140;6.498;2023-01-16T07:51:20;2.80;99.90
52879;DHT22;38747;53.140;6.498;2023-01-16T07:53:46;2.80;99.90
52879;DHT22;38747;53.140;6.498;2023-01-16T07:56:11;2.80;99.90
52879;DHT22;38747;53.140;6.498;2023-01-16T07:58:37;2.80;99.90
52879;DHT22;38747;53.140;6.498;2023-01-16T08:01:04;2.80;99.90
52879;DHT22;38747;53.140;6.498;2023-01-16T08:03:31;2.70;99.90
52879;DHT22;38747;53.140;6.498;2023-01-16T08:05:57;2.80;99.90
52879;DHT22;38747;53.140;6.498;2023-01-16T08:08:23;2.80;99.90
52879;DHT22;38747;53.140;6.498;2023-01-16T08:10:56;2.80;99.90
52879;DHT22;38747;53.140;6.498;2023-01-16T08:13:22;2.80;99.90
52879;DHT22;38747;53.140;6.498;2023-01-16T08:15:48;2.80;99.90
52879;DHT22;38747;53.140;6.498;2023-01-16T08:18:16;2.80;99.90
52879;DHT22;38747;53.140;6.498;2023-01-16T08:20:43;2.80;99.90
52879;DHT22;38747;53.140;6.498;2023-01-16T08:23:10;2.90;99.90
52879;DHT22;38747;53.140;6.498;2023-01-16T08:25:35;2.90;99.90
52879;DHT22;38747;53.140;6.498;2023-01-16T08:28:01;2.90;99.90
52879;DHT22;38747;53.140;6.498;2023-01-16T08:30:27;2.90;99.90
52879;DHT22;38747;53.140;6.498;2023-01-16T08:32:59;3.00;99.90
52879;DHT22;38747;53.140;6.498;2023-01-16T08:35:25;3.00;99.90
52879;DHT22;38747;53.140;6.498;2023-01-16T08:37:51;3.00;99.90
52879;DHT22;38747;53.140;6.498;2023-01-16T08:40:17;3.00;99.90
52879;DHT22;38747;53.140;6.498;2023-01-16T08:42:43;3.10;99.90
52879;DHT22;38747;53.140;6.498;2023-01-16T08:45:27;3.10;99.90
52879;DHT22;38747;53.140;6.498;2023-01-16T08:48:15;3.20;99.90
52879;DHT22;38747;53.140;6.498;2023-01-16T08:51:02;3.20;99.90
52879;DHT22;38747;53.140;6.498;2023-01-16T08:53:47;3.20;99.90
52879;DHT22;38747;53.140;6.498;2023-01-16T08:56:13;3.20;99.90
52879;DHT22;38747;53.140;6.498;2023-01-16T08:58:38;3.30;99.90
52879;DHT22;38747;53.140;6.498;2023-01-16T09:01:04;3.30;99.90
52879;DHT22;38747;53.140;6.498;2023-01-16T09:03:30;3.30;99.90
52879;DHT22;38747;53.140;6.498;2023-01-16T09:05:55;3.40;99.90
52879;DHT22;38747;53.140;6.498;2023-01-16T09:08:21;3.30;99.90
52879;DHT22;38747;53.140;6.498;2023-01-16T09:10:47;3.40;99.90
52879;DHT22;38747;53.140;6.498;2023-01-16T09:13:32;3.40;99.90
52879;DHT22;38747;53.140;6.498;2023-01-16T09:18:41;3.50;99.90
52879;DHT22;38747;53.140;6.498;2023-01-16T09:21:07;3.50;99.90
52879;DHT22;38747;53.140;6.498;2023-01-16T09:23:33;3.50;99.90
52879;DHT22;38747;53.140;6.498;2023-01-16T09:25:58;3.50;99.90
52879;DHT22;38747;53.140;6.498;2023-01-16T09:28:24;3.60;99.90
52879;DHT22;38747;53.140;6.498;2023-01-16T09:30:51;3.60;99.90
52879;DHT22;38747;53.140;6.498;2023-01-16T09:33:17;3.60;99.90
52879;DHT22;38747;53.140;6.498;2023-01-16T09:35:42;3.60;99.90
52879;DHT22;38747;53.140;6.498;2023-01-16T09:38:08;3.70;99.90
52879;DHT22;38747;53.140;6.498;2023-01-16T09:40:34;3.70;99.90
52879;DHT22;38747;53.140;6.498;2023-01-16T09:43:12;3.70;99.90
52879;DHT22;38747;53.140;6.498;2023-01-16T09:45:59;3.70;99.90
52879;DHT22;38747;53.140;6.498;2023-01-16T09:48:33;3.70;99.90
52879;DHT22;38747;53.140;6.498;2023-01-16T09:51:10;3.70;99.90
52879;DHT22;38747;53.140;6.498;2023-01-16T09:53:48;3.80;99.90
52879;DHT22;38747;53.140;6.498;2023-01-16T09:56:40;3.80;99.90
52879;DHT22;38747;53.140;6.498;2023-01-16T09:59:32;3.80;99.90
52879;DHT22;38747;53.140;6.498;2023-01-16T10:02:23;3.80;99.90
52879;DHT22;38747;53.140;6.498;2023-01-16T10:04:51;3.80;99.90
52879;DHT22;38747;53.140;6.498;2023-01-16T10:10:23;3.80;99.90
52879;DHT22;38747;53.140;6.498;2023-01-16T10:22:07;3.90;99.90
52879;DHT22;38747;53.140;6.498;2023-01-16T10:27:18;3.90;99.90
52879;DHT22;38747;53.140;6.498;2023-01-16T10:29:51;3.90;99.90
52879;DHT22;38747;53.140;6.498;2023-01-16T10:37:33;3.90;99.90
52879;DHT22;38747;53.140;6.498;2023-01-16T10:40:04;3.90;99.90
52879;DHT22;38747;53.140;6.498;2023-01-16T10:42:33;3.90;99.90
52879;DHT22;38747;53.140;6.498;2023-01-16T10:45:21;3.90;99.90
52879;DHT22;38747;53.140;6.498;2023-01-16T10:48:11;3.90;99.90
52879;DHT22;38747;53.140;6.498;2023-01-16T10:50:57;3.80;99.90
52879;DHT22;38747;53.140;6.498;2023-01-16T10:53:23;3.90;99.90
52879;DHT22;38747;53.140;6.498;2023-01-16T10:55:50;3.80;99.90
52879;DHT22;38747;53.140;6.498;2023-01-16T10:58:25;3.80;99.90
52879;DHT22;38747;53.140;6.498;2023-01-16T11:01:00;3.70;99.90
52879;DHT22;38747;53.140;6.498;2023-01-16T11:03:54;3.70;99.90
52879;DHT22;38747;53.140;6.498;2023-01-16T11:06:22;3.60;99.90
52879;DHT22;38747;53.140;6.498;2023-01-16T11:11:40;3.50;99.90
52879;DHT22;38747;53.140;6.498;2023-01-16T11:20:21;3.50;99.90
52879;DHT22;38747;53.140;6.498;2023-01-16T11:23:04;3.40;99.90
52879;DHT22;38747;53.140;6.498;2023-01-16T11:25:30;3.50;99.90
52879;DHT22;38747;53.140;6.498;2023-01-16T11:27:58;3.40;99.90
52879;DHT22;38747;53.140;6.498;2023-01-16T11:30:30;3.40;99.90
52879;DHT22;38747;53.140;6.498;2023-01-16T11:32:57;3.40;99.90
52879;DHT22;38747;53.140;6.498;2023-01-16T11:35:34;3.40;99.90
52879;DHT22;38747;53.140;6.498;2023-01-16T11:38:01;3.40;99.90
52879;DHT22;38747;53.140;6.498;2023-01-16T11:40:35;3.30;99.90
52879;DHT22;38747;53.140;6.498;2023-01-16T11:43:11;3.40;99.90
52879;DHT22;38747;53.140;6.498;2023-01-16T11:45:57;3.40;99.90
52879;DHT22;38747;53.140;6.498;2023-01-16T11:48:43;3.40;99.90
52879;DHT22;38747;53.140;6.498;2023-01-16T11:51:19;3.30;99.90
52879;DHT22;38747;53.140;6.498;2023-01-16T11:53:48;3.30;99.90
52879;DHT22;38747;53.140;6.498;2023-01-16T11:56:30;3.30;99.90
52879;DHT22;38747;53.140;6.498;2023-01-16T12:01:41;3.40;99.90
52879;DHT22;38747;53.140;6.498;2023-01-16T12:04:30;3.40;99.90
52879;DHT22;38747;53.140;6.498;2023-01-16T12:07:14;3.30;99.90
52879;DHT22;38747;53.140;6.498;2023-01-16T12:09:47;3.30;99.90
52879;DHT22;38747;53.140;6.498;2023-01-16T12:18:30;3.40;99.90
52879;DHT22;38747;53.140;6.498;2023-01-16T12:21:02;3.40;99.90
52879;DHT22;38747;53.140;6.498;2023-01-16T12:26:24;3.40;99.90
52879;DHT22;38747;53.140;6.498;2023-01-16T12:29:08;3.50;99.90
52879;DHT22;38747;53.140;6.498;2023-01-16T12:34:57;3.50;99.90
52879;DHT22;38747;53.140;6.498;2023-01-16T12:38:13;3.50;99.90
52879;DHT22;38747;53.140;6.498;2023-01-16T12:44:14;3.50;99.90
52879;DHT22;38747;53.140;6.498;2023-01-16T12:49:46;3.60;99.90
52879;DHT22;38747;53.140;6.498;2023-01-16T12:55:21;3.60;99.90
52879;DHT22;38747;53.140;6.498;2023-01-16T12:58:02;3.70;99.90
52879;DHT22;38747;53.140;6.498;2023-01-16T13:00:42;3.70;99.90
52879;DHT22;38747;53.140;6.498;2023-01-16T13:03:10;3.70;99.90
52879;DHT22;38747;53.140;6.498;2023-01-16T13:05:39;3.80;99.90
52879;DHT22;38747;53.140;6.498;2023-01-16T13:08:15;3.80;99.90
52879;DHT22;38747;53.140;6.498;2023-01-16T13:10:48;3.80;99.90
52879;DHT22;38747;53.140;6.498;2023-01-16T13:13:42;3.70;99.90
52879;DHT22;38747;53.140;6.498;2023-01-16T13:16:26;3.80;99.90
52879;DHT22;38747;53.140;6.498;2023-01-16T13:22:04;3.80;99.90
52879;DHT22;38747;53.140;6.498;2023-01-16T13:24:35;3.80;99.90
52879;DHT22;38747;53.140;6.498;2023-01-16T13:27:05;3.80;99.90
52879;DHT22;38747;53.140;6.498;2023-01-16T13:30:12;3.90;99.90
52879;DHT22;38747;53.140;6.498;2023-01-16T13:33:12;3.90;99.90
52879;DHT22;38747;53.140;6.498;2023-01-16T13:39:03;3.90;99.90
52879;DHT22;38747;53.140;6.498;2023-01-16T13:41:39;3.90;99.90
52879;DHT22;38747;53.140;6.498;2023-01-16T13:44:18;3.90;99.90
52879;DHT22;38747;53.140;6.498;2023-01-16T13:47:13;3.90;99.90
52879;DHT22;38747;53.140;6.498;2023-01-16T13:49:40;4.00;99.90
52879;DHT22;38747;53.140;6.498;2023-01-16T13:52:18;3.90;99.90
52879;DHT22;38747;53.140;6.498;2023-01-16T13:54:47;4.00;99.90
52879;DHT22;38747;53.140;6.498;2023-01-16T13:57:19;4.00;99.90
52879;DHT22;38747;53.140;6.498;2023-01-16T13:59:52;4.00;99.90
52879;DHT22;38747;53.140;6.498;2023-01-16T14:10:44;4.10;99.90
52879;DHT22;38747;53.140;6.498;2023-01-16T14:15:52;4.10;99.90
52879;DHT22;38747;53.140;6.498;2023-01-16T14:18:57;4.10;99.90
52879;DHT22;38747;53.140;6.498;2023-01-16T14:21:54;4.10;99.90
52879;DHT22;38747;53.140;6.498;2023-01-16T14:24:45;4.10;99.90
52879;DHT22;38747;53.140;6.498;2023-01-16T14:27:32;4.10;99.90
52879;DHT22;38747;53.140;6.498;2023-01-16T14:30:01;4.10;99.90
52879;DHT22;38747;53.140;6.498;2023-01-16T14:32:30;4.10;99.90
52879;DHT22;38747;53.140;6.498;2023-01-16T14:35:17;4.10;99.90
52879;DHT22;38747;53.140;6.498;2023-01-16T14:37:56;4.10;99.90
52879;DHT22;38747;53.140;6.498;2023-01-16T14:40:27;4.10;99.90
52879;DHT22;38747;53.140;6.498;2023-01-16T14:43:29;4.10;99.90
52879;DHT22;38747;53.140;6.498;2023-01-16T14:52:43;4.10;99.90
52879;DHT22;38747;53.140;6.498;2023-01-16T14:58:13;4.20;99.90
52879;DHT22;38747;53.140;6.498;2023-01-16T15:00:41;4.20;99.90
52879;DHT22;38747;53.140;6.498;2023-01-16T15:03:13;4.20;99.90
52879;DHT22;38747;53.140;6.498;2023-01-16T15:08:30;4.20;99.90
52879;DHT22;38747;53.140;6.498;2023-01-16T15:10:57;4.20;99.90
52879;DHT22;38747;53.140;6.498;2023-01-16T15:13:45;4.10;99.90
52879;DHT22;38747;53.140;6.498;2023-01-16T15:16:29;4.10;99.90
52879;DHT22;38747;53.140;6.498;2023-01-16T15:19:16;4.20;99.90
52879;DHT22;38747;53.140;6.498;2023-01-16T15:22:19;4.10;99.90
52879;DHT22;38747;53.140;6.498;2023-01-16T15:24:53;4.20;99.90
52879;DHT22;38747;53.140;6.498;2023-01-16T15:27:28;4.10;99.90
52879;DHT22;38747;53.140;6.498;2023-01-16T15:30:03;4.10;99.90
52879;DHT22;38747;53.140;6.498;2023-01-16T15:32:29;4.10;99.90
52879;DHT22;38747;53.140;6.498;2023-01-16T15:35:14;4.10;99.90
52879;DHT22;38747;53.140;6.498;2023-01-16T15:37:52;4.10;99.90
52879;DHT22;38747;53.140;6.498;2023-01-16T15:40:26;4.10;99.90
52879;DHT22;38747;53.140;6.498;2023-01-16T15:42:53;4.10;99.90
52879;DHT22;38747;53.140;6.498;2023-01-16T15:45:47;4.10;99.90
52879;DHT22;38747;53.140;6.498;2023-01-16T15:49:09;4.10;99.90
52879;DHT22;38747;53.140;6.498;2023-01-16T15:51:24;4.10;99.90
52879;DHT22;38747;53.140;6.498;2023-01-16T15:53:50;4.10;99.90
52879;DHT22;38747;53.140;6.498;2023-01-16T15:56:37;4.10;99.90
52879;DHT22;38747;53.140;6.498;2023-01-16T15:59:29;4.10;99.90
52879;DHT22;38747;53.140;6.498;2023-01-16T16:04:44;4.00;99.90
52879;DHT22;38747;53.140;6.498;2023-01-16T16:07:11;4.10;99.90
52879;DHT22;38747;53.140;6.498;2023-01-16T16:09:39;4.10;99.90
52879;DHT22;38747;53.140;6.498;2023-01-16T16:12:08;4.10;99.90
52879;DHT22;38747;53.140;6.498;2023-01-16T16:14:36;4.10;99.90
52879;DHT22;38747;53.140;6.498;2023-01-16T16:17:34;4.10;99.90
52879;DHT22;38747;53.140;6.498;2023-01-16T16:23:03;4.10;99.90
52879;DHT22;38747;53.140;6.498;2023-01-16T16:28:21;4.10;99.90
52879;DHT22;38747;53.140;6.498;2023-01-16T16:30:53;4.10;99.90
52879;DHT22;38747;53.140;6.498;2023-01-16T16:33:20;4.10;99.90
52879;DHT22;38747;53.140;6.498;2023-01-16T16:35:49;4.10;99.90
52879;DHT22;38747;53.140;6.498;2023-01-16T16:43:55;4.10;99.90
52879;DHT22;38747;53.140;6.498;2023-01-16T16:48:53;4.10;99.90
52879;DHT22;38747;53.140;6.498;2023-01-16T16:51:26;4.10;99.90
52879;DHT22;38747;53.140;6.498;2023-01-16T16:53:57;4.10;99.90
52879;DHT22;38747;53.140;6.498;2023-01-16T16:56:28;4.10;99.90
52879;DHT22;38747;53.140;6.498;2023-01-16T16:58:56;4.10;99.90
52879;DHT22;38747;53.140;6.498;2023-01-16T17:01:24;4.00;99.90
52879;DHT22;38747;53.140;6.498;2023-01-16T17:03:53;4.10;99.90
52879;DHT22;38747;53.140;6.498;2023-01-16T17:06:27;4.10;99.90
52879;DHT22;38747;53.140;6.498;2023-01-16T17:08:53;4.10;99.90
52879;DHT22;38747;53.140;6.498;2023-01-16T17:11:20;4.10;99.90
52879;DHT22;38747;53.140;6.498;2023-01-16T17:13:46;4.00;99.90
52879;DHT22;38747;53.140;6.498;2023-01-16T17:16:23;4.10;99.90
52879;DHT22;38747;53.140;6.498;2023-01-16T17:19:15;4.00;99.90
52879;DHT22;38747;53.140;6.498;2023-01-16T17:21:42;4.00;99.90
52879;DHT22;38747;53.140;6.498;2023-01-16T17:24:15;4.00;99.90
52879;DHT22;38747;53.140;6.498;2023-01-16T17:26:42;4.00;99.90
52879;DHT22;38747;53.140;6.498;2023-01-16T17:29:08;4.00;99.90
52879;DHT22;38747;53.140;6.498;2023-01-16T17:31:37;4.00;99.90
52879;DHT22;38747;53.140;6.498;2023-01-16T17:34:03;4.00;99.90
52879;DHT22;38747;53.140;6.498;2023-01-16T17:36:28;4.00;99.90
52879;DHT22;38747;53.140;6.498;2023-01-16T17:38:54;4.00;99.90
52879;DHT22;38747;53.140;6.498;2023-01-16T17:41:25;3.90;99.90
52879;DHT22;38747;53.140;6.498;2023-01-16T17:43:57;3.90;99.90
52879;DHT22;38747;53.140;6.498;2023-01-16T17:46:42;4.00;99.90
52879;DHT22;38747;53.140;6.498;2023-01-16T17:49:07;3.90;99.90
52879;DHT22;38747;53.140;6.498;2023-01-16T17:51:33;4.00;99.90
52879;DHT22;38747;53.140;6.498;2023-01-16T17:53:59;3.90;99.90
52879;DHT22;38747;53.140;6.498;2023-01-16T17:56:25;4.00;99.90
52879;DHT22;38747;53.140;6.498;2023-01-16T17:58:51;3.90;99.90
52879;DHT22;38747;53.140;6.498;2023-01-16T18:01:30;3.90;99.90
52879;DHT22;38747;53.140;6.498;2023-01-16T18:04:00;3.90;99.90
52879;DHT22;38747;53.140;6.498;2023-01-16T18:06:32;3.90;99.90
52879;DHT22;38747;53.140;6.498;2023-01-16T18:08:57;3.90;99.90
52879;DHT22;38747;53.140;6.498;2023-01-16T18:11:24;3.90;99.90
52879;DHT22;38747;53.140;6.498;2023-01-16T18:14:12;3.90;99.90
52879;DHT22;38747;53.140;6.498;2023-01-16T18:16:57;3.90;99.90
52879;DHT22;38747;53.140;6.498;2023-01-16T18:19:41;3.90;99.90
52879;DHT22;38747;53.140;6.498;2023-01-16T18:22:07;3.90;99.90
52879;DHT22;38747;53.140;6.498;2023-01-16T18:24:35;3.90;99.90
52879;DHT22;38747;53.140;6.498;2023-01-16T18:27:03;3.90;99.90
52879;DHT22;38747;53.140;6.498;2023-01-16T18:29:29;3.90;99.90
52879;DHT22;38747;53.140;6.498;2023-01-16T18:31:54;3.90;99.90
52879;DHT22;38747;53.140;6.498;2023-01-16T18:34:39;3.90;99.90